createdAt,value
2016-04-08T00:00:31.162Z,4.64
2016-04-08T00:01:31.118Z,4.59
2016-04-08T00:02:31.089Z,4.61
2016-04-08T00:03:31.060Z,4.62
2016-04-08T00:04:31.032Z,4.58
2016-04-08T00:05:31.019Z,4.62
2016-04-08T00:06:30.975Z,4.59
2016-04-08T00:07:30.946Z,4.65
2016-04-08T00:08:30.918Z,4.58
2016-04-08T00:09:30.890Z,4.64
2016-04-08T00:10:30.861Z,4.61
2016-04-08T00:11:30.832Z,4.64
2016-04-08T00:12:30.804Z,4.62
2016-04-08T00:13:30.780Z,4.65
2016-04-08T00:14:30.766Z,4.65
2016-04-08T00:15:30.722Z,4.51
2016-04-08T00:16:30.693Z,4.62
2016-04-08T00:17:30.649Z,4.59
2016-04-08T00:18:30.652Z,4.54
2016-04-08T00:19:30.608Z,4.58
2016-04-08T00:20:30.579Z,4.54
2016-04-08T00:21:30.551Z,4.54
2016-04-08T00:22:30.538Z,4.55
2016-04-08T00:23:30.493Z,4.57
2016-04-08T00:24:30.465Z,4.58
2016-04-08T00:25:30.436Z,4.62
2016-04-08T00:26:30.408Z,4.59
2016-04-08T00:27:30.364Z,4.59
2016-04-08T00:28:30.194Z,4.57
2016-04-08T00:29:30.322Z,4.54
2016-04-08T00:30:30.293Z,4.55
2016-04-08T00:31:30.264Z,4.54
2016-04-08T00:32:30.236Z,4.42
2016-04-08T00:33:30.207Z,4.5
2016-04-08T00:34:30.180Z,4.5
2016-04-08T00:35:30.150Z,4.46
2016-04-08T00:36:30.122Z,4.44
2016-04-08T00:37:30.094Z,4.42
2016-04-08T00:38:30.065Z,4.43
2016-04-08T00:39:30.036Z,4.44
2016-04-08T00:40:30.024Z,4.43
2016-04-08T00:41:29.979Z,4.39
2016-04-08T00:42:29.951Z,4.37
2016-04-08T00:43:29.921Z,4.37
2016-04-08T00:44:29.893Z,4.37
2016-04-08T00:45:29.880Z,4.34
2016-04-08T00:46:29.836Z,4.39
2016-04-08T00:47:29.807Z,4.34
2016-04-08T00:48:29.810Z,4.34
2016-04-08T00:49:29.751Z,4.42
2016-04-08T00:50:29.723Z,4.32
2016-04-08T00:51:29.693Z,4.32
2016-04-08T00:52:29.665Z,4.32
2016-04-08T00:53:29.620Z,4.34
2016-04-08T00:54:29.608Z,4.43
2016-04-08T00:55:29.579Z,4.46
2016-04-08T00:56:29.550Z,4.57
2016-04-08T00:57:29.507Z,4.58
2016-04-08T00:58:29.494Z,4.69
2016-04-08T00:59:29.465Z,4.65
2016-04-08T01:00:29.452Z,4.69
2016-04-08T01:01:29.408Z,4.69
2016-04-08T01:02:29.380Z,4.75
2016-04-08T01:03:29.350Z,4.77
2016-04-08T01:04:29.338Z,4.83
2016-04-08T01:05:29.294Z,4.92
2016-04-08T01:06:29.265Z,4.91
2016-04-08T01:07:29.236Z,4.95
2016-04-08T01:08:29.224Z,4.95
2016-04-08T01:09:29.179Z,4.96
2016-04-08T01:10:29.152Z,5.05
2016-04-08T01:11:29.122Z,4.98
2016-04-08T01:12:29.094Z,5.01
2016-04-08T01:13:29.066Z,5.02
2016-04-08T01:14:29.052Z,5.04
2016-04-08T01:15:29.024Z,5.05
2016-04-08T01:16:28.979Z,4.98
2016-04-08T01:17:28.951Z,5.04
2016-04-08T01:18:28.938Z,5.04
2016-04-08T01:19:28.893Z,5.05
2016-04-08T01:20:28.865Z,4.95
2016-04-08T01:21:28.851Z,4.94
2016-04-08T01:22:28.808Z,4.98
2016-04-08T01:23:28.795Z,4.98
2016-04-08T01:24:28.751Z,4.91
2016-04-08T01:25:28.738Z,4.86
2016-04-08T01:26:28.694Z,4.86
2016-04-08T01:27:28.665Z,4.88
2016-04-08T01:28:28.636Z,4.8
2016-04-08T01:29:28.623Z,4.88
2016-04-08T01:30:28.595Z,4.8
2016-04-08T01:31:28.550Z,4.75
2016-04-08T01:32:28.522Z,4.73
2016-04-08T01:33:28.509Z,4.7
2016-04-08T01:34:28.481Z,4.65
2016-04-08T01:35:28.453Z,4.7
2016-04-08T01:36:28.425Z,4.59
2016-04-08T01:37:28.395Z,4.65
2016-04-08T01:38:28.383Z,4.67
2016-04-08T01:39:28.338Z,4.58
2016-04-08T01:40:28.310Z,4.59
2016-04-08T01:41:28.281Z,4.54
2016-04-08T01:42:28.252Z,4.46
2016-04-08T01:43:28.240Z,4.47
2016-04-08T01:44:28.195Z,4.54
2016-04-08T01:45:28.182Z,4.5
2016-04-08T01:46:28.138Z,4.37
2016-04-08T01:47:28.126Z,4.36
2016-04-08T01:48:28.082Z,4.39
2016-04-08T01:49:28.052Z,4.33
2016-04-08T01:50:28.024Z,4.32
2016-04-08T01:51:28.026Z,4.34
2016-04-08T01:52:27.982Z,4.25
2016-04-08T01:53:27.954Z,4.29
2016-04-08T01:54:27.909Z,4.24
2016-04-08T01:55:27.881Z,4.25
2016-04-08T01:56:27.852Z,4.18
2016-04-08T01:57:27.823Z,4.32
2016-04-08T01:58:27.795Z,4.19
2016-04-08T01:59:27.767Z,4.25
2016-04-08T02:00:27.739Z,4.25
2016-04-08T02:01:27.725Z,4.22
2016-04-08T02:02:27.681Z,4.26
2016-04-08T02:03:27.653Z,4.22
2016-04-08T02:04:27.625Z,4.16
2016-04-08T02:05:27.595Z,4.24
2016-04-08T02:06:27.567Z,4.12
2016-04-08T02:07:27.538Z,4.14
2016-04-08T02:08:27.508Z,4.08
2016-04-08T02:09:27.495Z,4.21
2016-04-08T02:10:27.451Z,4.1
2016-04-08T02:11:27.423Z,4.08
2016-04-08T02:12:27.394Z,4.12
2016-04-08T02:13:27.365Z,4.14
2016-04-08T02:14:27.336Z,4.1
2016-04-08T02:15:27.324Z,4.03
2016-04-08T02:16:27.280Z,4.12
2016-04-08T02:17:27.250Z,4.15
2016-04-08T02:18:27.222Z,4.08
2016-04-08T02:19:27.209Z,4.08
2016-04-08T02:20:27.180Z,4.08
2016-04-08T02:21:27.136Z,4.08
2016-04-08T02:22:27.107Z,4.07
2016-04-08T02:23:27.079Z,4.07
2016-04-08T02:24:27.066Z,4.08
2016-04-08T02:25:27.022Z,4.08
2016-04-08T02:26:26.994Z,4.1
2016-04-08T02:27:26.966Z,4.1
2016-04-08T02:28:26.952Z,4
2016-04-08T02:29:26.908Z,4.07
2016-04-08T02:30:41.038Z,3.98
2016-04-08T02:31:26.851Z,4.06
2016-04-08T02:32:26.822Z,4.15
2016-04-08T02:33:26.809Z,4.01
2016-04-08T02:34:26.765Z,4.07
2016-04-08T02:35:26.737Z,4.14
2016-04-08T02:36:26.693Z,4.1
2016-04-08T02:37:26.679Z,4.15
2016-04-08T02:38:26.667Z,4.14
2016-04-08T02:39:26.654Z,4.15
2016-04-08T02:40:26.594Z,4.18
2016-04-08T02:41:26.565Z,4.12
2016-04-08T02:42:26.536Z,4.15
2016-04-08T02:43:26.492Z,4.08
2016-04-08T02:44:26.464Z,4.16
2016-04-08T02:45:26.450Z,4.14
2016-04-08T02:46:26.422Z,4.12
2016-04-08T02:47:26.394Z,4.15
2016-04-08T02:48:26.350Z,4.14
2016-04-08T02:49:26.336Z,4.12
2016-04-08T02:50:26.293Z,4.04
2016-04-08T02:51:26.264Z,4.14
2016-04-08T02:52:26.236Z,4.06
2016-04-08T02:53:26.222Z,4.18
2016-04-08T02:54:26.179Z,4.07
2016-04-08T02:55:26.150Z,4.12
2016-04-08T02:56:26.121Z,4.12
2016-04-08T02:57:26.124Z,4.16
2016-04-08T02:58:26.235Z,4.18
2016-04-08T02:59:26.067Z,4.06
2016-04-08T03:00:26.023Z,4.18
2016-04-08T03:01:25.994Z,4.1
2016-04-08T03:02:25.951Z,4.19
2016-04-08T03:03:25.921Z,4.14
2016-04-08T03:04:25.768Z,4.26
2016-04-08T03:05:25.879Z,4.26
2016-04-08T03:06:25.836Z,4.28
2016-04-08T03:07:25.807Z,4.37
2016-04-08T03:08:25.950Z,4.5
2016-04-08T03:09:25.781Z,4.55
2016-04-08T03:10:25.721Z,4.54
2016-04-08T03:11:25.708Z,4.7
2016-04-08T03:12:25.680Z,4.62
2016-04-08T03:13:25.682Z,4.69
2016-04-08T03:14:25.608Z,4.75
2016-04-08T03:15:25.594Z,4.86
2016-04-08T03:16:25.550Z,4.89
2016-04-08T03:17:25.522Z,4.94
2016-04-08T03:18:25.493Z,4.99
2016-04-08T03:19:25.292Z,4.99
2016-04-08T03:20:25.436Z,5.04
2016-04-08T03:21:25.422Z,5.05
2016-04-08T03:22:25.363Z,5.2
2016-04-08T03:23:25.350Z,5.12
2016-04-08T03:24:25.338Z,5.02
2016-04-08T03:25:25.309Z,5.19
2016-04-08T03:26:25.265Z,5.14
2016-04-08T03:27:25.236Z,5.22
2016-04-08T03:28:25.677Z,5.27
2016-04-08T03:29:25.179Z,5.25
2016-04-08T03:30:25.151Z,5.28
2016-04-08T03:31:25.121Z,5.35
2016-04-08T03:32:25.109Z,5.32
2016-04-08T03:33:25.079Z,5.37
2016-04-08T03:34:25.067Z,5.4
2016-04-08T03:35:25.040Z,5.41
2016-04-08T03:36:25.056Z,5.45
2016-04-08T03:37:25.072Z,5.37
2016-04-08T03:38:25.087Z,5.43
2016-04-08T03:39:25.102Z,5.52
2016-04-08T03:40:25.112Z,5.5
2016-04-08T03:41:25.098Z,5.53
2016-04-08T03:42:25.085Z,5.53
2016-04-08T03:43:25.120Z,5.53
2016-04-08T03:44:25.044Z,5.56
2016-04-08T03:45:25.024Z,5.56
2016-04-08T03:46:25.001Z,5.64
2016-04-08T03:47:24.976Z,5.68
2016-04-08T03:48:24.969Z,5.77
2016-04-08T03:49:24.945Z,5.75
2016-04-08T03:50:24.905Z,5.77
2016-04-08T03:51:24.878Z,5.82
2016-04-08T03:52:24.852Z,5.75
2016-04-08T03:53:24.840Z,5.82
2016-04-08T03:54:24.799Z,5.74
2016-04-08T03:55:24.803Z,5.75
2016-04-08T03:56:24.743Z,5.83
2016-04-08T03:57:24.730Z,5.91
2016-04-08T03:58:24.875Z,5.91
2016-04-08T03:59:24.675Z,5.95
2016-04-08T04:00:24.662Z,5.95
2016-04-08T04:01:24.618Z,6.04
2016-04-08T04:02:24.591Z,6
2016-04-08T04:03:24.563Z,5.96
2016-04-08T04:04:24.535Z,6.01
2016-04-08T04:05:24.506Z,6.07
2016-04-08T04:06:24.477Z,6.1
2016-04-08T04:07:24.465Z,6
2016-04-08T04:08:24.435Z,6.01
2016-04-08T04:09:24.391Z,6.07
2016-04-08T04:10:24.363Z,6.06
2016-04-08T04:11:24.334Z,6.04
2016-04-08T04:12:24.306Z,6
2016-04-08T04:13:24.277Z,6.03
2016-04-08T04:14:24.264Z,6.13
2016-04-08T04:15:24.221Z,6.06
2016-04-08T04:16:24.192Z,6.07
2016-04-08T04:17:24.179Z,6.03
2016-04-08T04:18:24.151Z,5.98
2016-04-08T04:19:24.122Z,6.01
2016-04-08T04:20:24.093Z,5.93
2016-04-08T04:21:24.064Z,5.92
2016-04-08T04:22:24.036Z,5.88
2016-04-08T04:23:24.023Z,5.93
2016-04-08T04:24:23.995Z,5.77
2016-04-08T04:25:23.981Z,5.88
2016-04-08T04:26:23.922Z,5.7
2016-04-08T04:27:23.908Z,5.73
2016-04-08T04:28:23.896Z,5.7
2016-04-08T04:29:23.852Z,5.7
2016-04-08T04:30:23.823Z,5.67
2016-04-08T04:31:23.795Z,5.75
2016-04-08T04:32:23.766Z,5.66
2016-04-08T04:33:23.738Z,5.71
2016-04-08T04:34:23.708Z,5.63
2016-04-08T04:35:23.665Z,5.75
2016-04-08T04:36:23.652Z,5.71
2016-04-08T04:37:23.623Z,5.82
2016-04-08T04:38:23.594Z,5.77
2016-04-08T04:39:23.582Z,5.78
2016-04-08T04:40:23.554Z,5.82
2016-04-08T04:41:23.494Z,5.82
2016-04-08T04:42:23.480Z,5.92
2016-04-08T04:43:23.452Z,5.85
2016-04-08T04:44:23.439Z,5.89
2016-04-08T04:45:23.410Z,5.91
2016-04-08T04:46:23.366Z,5.86
2016-04-08T04:47:23.353Z,5.91
2016-04-08T04:48:23.325Z,5.91
2016-04-08T04:49:23.295Z,5.98
2016-04-08T04:50:23.267Z,5.98
2016-04-08T04:51:23.254Z,6.03
2016-04-08T04:52:23.211Z,5.98
2016-04-08T04:53:23.181Z,6
2016-04-08T04:54:23.154Z,5.92
2016-04-08T04:55:23.140Z,6.04
2016-04-08T04:56:23.097Z,5.98
2016-04-08T04:57:23.068Z,6
2016-04-08T04:58:23.039Z,5.96
2016-04-08T04:59:23.011Z,6.03
2016-04-08T05:00:22.997Z,6.07
2016-04-08T05:01:22.969Z,6.07
2016-04-08T05:02:22.941Z,6.04
2016-04-08T05:03:22.911Z,6.1
2016-04-08T05:04:22.899Z,6.07
2016-04-08T05:05:22.854Z,6.11
2016-04-08T05:06:22.841Z,6.07
2016-04-08T05:07:22.797Z,6.11
2016-04-08T05:08:22.769Z,6.09
2016-04-08T05:09:22.741Z,6.1
2016-04-08T05:10:22.712Z,6.28
2016-04-08T05:11:22.683Z,6.22
2016-04-08T05:12:22.671Z,6.32
2016-04-08T05:13:22.642Z,6.28
2016-04-08T05:14:22.613Z,6.36
2016-04-08T05:15:22.585Z,6.32
2016-04-08T05:16:22.556Z,6.32
2016-04-08T05:17:22.529Z,6.21
2016-04-08T05:18:22.499Z,6.25
2016-04-08T05:19:22.471Z,6.35
2016-04-08T05:20:22.458Z,6.25
2016-04-08T05:21:22.414Z,6.35
2016-04-08T05:22:22.385Z,6.36
2016-04-08T05:23:22.356Z,6.35
2016-04-08T05:24:22.343Z,6.38
2016-04-08T05:25:22.315Z,6.44
2016-04-08T05:26:22.286Z,6.5
2016-04-08T05:27:22.258Z,6.44
2016-04-08T05:28:22.228Z,6.44
2016-04-08T05:29:22.216Z,6.41
2016-04-08T05:30:22.172Z,6.41
2016-04-08T05:31:22.159Z,6.46
2016-04-08T05:32:22.115Z,6.5
2016-04-08T05:33:22.102Z,6.53
2016-04-08T05:34:22.074Z,6.51
2016-04-08T05:35:22.045Z,6.56
2016-04-08T05:36:22.017Z,6.56
2016-04-08T05:37:21.972Z,6.59
2016-04-08T05:38:21.960Z,6.63
2016-04-08T05:39:21.930Z,6.47
2016-04-08T05:40:21.886Z,6.5
2016-04-08T05:41:21.889Z,6.59
2016-04-08T05:42:21.860Z,6.62
2016-04-08T05:43:21.816Z,6.61
2016-04-08T05:44:21.787Z,6.59
2016-04-08T05:45:21.774Z,6.59
2016-04-08T05:46:21.731Z,6.69
2016-04-08T05:47:21.717Z,6.72
2016-04-08T05:48:21.674Z,6.76
2016-04-08T05:49:21.676Z,6.63
2016-04-08T05:50:21.617Z,6.69
2016-04-08T05:51:21.604Z,6.71
2016-04-08T05:52:21.590Z,6.73
2016-04-08T05:53:21.546Z,6.63
2016-04-08T05:54:21.533Z,6.72
2016-04-08T05:55:21.520Z,6.68
2016-04-08T05:56:21.461Z,6.66
2016-04-08T05:57:21.431Z,6.72
2016-04-08T05:58:21.434Z,6.63
2016-04-08T05:59:21.391Z,6.69
2016-04-08T06:00:21.362Z,6.66
2016-04-08T06:01:21.334Z,6.72
2016-04-08T06:02:21.305Z,6.71
2016-04-08T06:03:21.277Z,6.69
2016-04-08T06:04:21.264Z,6.72
2016-04-08T06:05:21.235Z,6.73
2016-04-08T06:06:21.191Z,6.66
2016-04-08T06:07:21.194Z,6.71
2016-04-08T06:08:21.149Z,6.73
2016-04-08T06:09:21.136Z,6.77
2016-04-08T06:10:21.091Z,6.79
2016-04-08T06:11:21.079Z,6.77
2016-04-08T06:12:21.035Z,6.89
2016-04-08T06:13:21.022Z,6.77
2016-04-08T06:14:20.993Z,6.71
2016-04-08T06:15:20.966Z,6.76
2016-04-08T06:16:20.921Z,6.81
2016-04-08T06:17:20.908Z,6.84
2016-04-08T06:18:20.879Z,6.89
2016-04-08T06:19:20.851Z,6.94
2016-04-08T06:20:20.823Z,6.9
2016-04-08T06:21:20.809Z,6.86
2016-04-08T06:22:20.765Z,6.98
2016-04-08T06:23:20.721Z,6.9
2016-04-08T06:24:20.723Z,6.86
2016-04-08T06:25:20.679Z,6.94
2016-04-08T06:26:20.666Z,6.9
2016-04-08T06:27:20.653Z,6.87
2016-04-08T06:28:20.609Z,7.01
2016-04-08T06:29:20.580Z,7.02
2016-04-08T06:30:20.552Z,6.94
2016-04-08T06:31:20.523Z,7.02
2016-04-08T06:32:20.511Z,7.05
2016-04-08T06:33:20.483Z,7.02
2016-04-08T06:34:20.454Z,7.15
2016-04-08T06:35:20.425Z,7.15
2016-04-08T06:36:20.397Z,7.23
2016-04-08T06:37:20.369Z,7.22
2016-04-08T06:38:20.340Z,7.24
2016-04-08T06:39:20.311Z,7.29
2016-04-08T06:40:20.283Z,7.24
2016-04-08T06:41:20.255Z,7.32
2016-04-08T06:42:20.225Z,7.22
2016-04-08T06:43:20.228Z,7.24
2016-04-08T06:44:20.184Z,7.26
2016-04-08T06:45:20.155Z,7.37
2016-04-08T06:46:20.127Z,7.37
2016-04-08T06:47:20.099Z,7.35
2016-04-08T06:48:20.086Z,7.41
2016-04-08T06:49:20.057Z,7.5
2016-04-08T06:50:20.013Z,7.42
2016-04-08T06:51:19.999Z,7.44
2016-04-08T06:52:19.971Z,7.58
2016-04-08T06:53:19.957Z,7.56
2016-04-08T06:54:19.914Z,7.6
2016-04-08T06:55:19.885Z,7.58
2016-04-08T06:56:19.857Z,7.53
2016-04-08T06:57:19.843Z,7.59
2016-04-08T06:58:19.815Z,7.66
2016-04-08T06:59:19.787Z,7.67
2016-04-08T07:00:19.764Z,7.69
2016-04-08T07:01:19.766Z,7.72
2016-04-08T07:02:19.722Z,7.77
2016-04-08T07:03:19.677Z,7.74
2016-04-08T07:04:19.680Z,7.66
2016-04-08T07:05:19.619Z,7.84
2016-04-08T07:06:19.607Z,7.81
2016-04-08T07:07:19.578Z,7.81
2016-04-08T07:08:19.411Z,7.78
2016-04-08T07:09:19.522Z,7.84
2016-04-08T07:10:19.495Z,7.81
2016-04-08T07:11:19.465Z,7.81
2016-04-08T07:12:19.453Z,7.92
2016-04-08T07:13:19.424Z,8.04
2016-04-08T07:14:19.490Z,8.02
2016-04-08T07:15:19.383Z,8.04
2016-04-08T07:16:19.354Z,8.11
2016-04-08T07:17:19.325Z,8.02
2016-04-08T07:18:19.297Z,8.12
2016-04-08T07:19:19.269Z,8.1
2016-04-08T07:20:19.239Z,8.22
2016-04-08T07:21:19.242Z,8.14
2016-04-08T07:22:19.182Z,8.11
2016-04-08T07:23:19.170Z,8.22
2016-04-08T07:24:19.141Z,8.25
2016-04-08T07:25:19.128Z,8.22
2016-04-08T07:26:19.085Z,8.3
2016-04-08T07:27:19.071Z,8.28
2016-04-08T07:28:19.043Z,8.37
2016-04-08T07:29:19.092Z,8.44
2016-04-08T07:30:18.986Z,8.55
2016-04-08T07:31:18.973Z,8.58
2016-04-08T07:32:18.928Z,8.54
2016-04-08T07:33:18.915Z,8.5
2016-04-08T07:34:18.871Z,8.54
2016-04-08T07:35:18.859Z,8.57
2016-04-08T07:36:18.829Z,8.54
2016-04-08T07:37:18.801Z,8.51
2016-04-08T07:38:18.788Z,8.6
2016-04-08T07:39:18.745Z,8.57
2016-04-08T07:40:18.731Z,8.55
2016-04-08T07:41:22.406Z,8.51
2016-04-08T07:42:19.971Z,8.5
2016-04-08T07:43:21.224Z,8.45
2016-04-08T07:44:22.883Z,8.42
2016-04-08T07:45:21.416Z,8.4
2016-04-08T07:46:22.388Z,8.51
2016-04-08T07:47:22.672Z,8.48
2016-04-08T07:48:22.894Z,8.54
2016-04-08T07:49:22.272Z,8.58
2016-04-08T07:50:22.431Z,8.69
2016-04-08T07:51:22.558Z,8.81
2016-04-08T07:52:22.372Z,8.75
2016-04-08T07:53:22.392Z,8.66
2016-04-08T07:54:22.597Z,8.63
2016-04-08T07:55:22.459Z,8.58
2016-04-08T07:56:22.477Z,8.63
2016-04-08T07:57:22.605Z,8.72
2016-04-08T07:58:22.452Z,8.76
2016-04-08T07:59:22.157Z,8.84
2016-04-08T08:00:22.222Z,8.84
2016-04-08T08:01:20.538Z,8.94
2016-04-08T08:02:22.196Z,8.93
2016-04-08T08:03:21.980Z,8.96
2016-04-08T08:04:21.967Z,8.96
2016-04-08T08:05:21.018Z,8.88
2016-04-08T08:06:18.082Z,8.91
2016-04-08T08:07:21.788Z,9.05
2016-04-08T08:08:21.743Z,9.12
2016-04-08T08:09:21.762Z,9.18
2016-04-08T08:10:17.984Z,9.31
2016-04-08T08:11:17.955Z,9.3
2016-04-08T08:12:18.537Z,9.23
2016-04-08T08:13:17.898Z,9.31
2016-04-08T08:14:17.885Z,9.32
2016-04-08T08:15:17.856Z,9.5
2016-04-08T08:16:17.828Z,9.4
2016-04-08T08:17:17.800Z,9.5
2016-04-08T08:18:17.786Z,9.66
2016-04-08T08:19:17.758Z,9.79
2016-04-08T08:20:17.730Z,9.71
2016-04-08T08:21:17.717Z,9.78
2016-04-08T08:22:17.688Z,9.78
2016-04-08T08:23:17.659Z,9.76
2016-04-08T08:24:17.647Z,9.83
2016-04-08T08:25:17.899Z,9.82
2016-04-08T08:26:17.589Z,9.78
2016-04-08T08:27:17.577Z,9.79
2016-04-08T08:28:17.548Z,9.83
2016-04-08T08:29:17.535Z,9.82
2016-04-08T08:30:17.490Z,10.01
2016-04-08T08:31:17.478Z,10.04
2016-04-08T08:32:17.465Z,10.15
2016-04-08T08:33:17.421Z,10.26
2016-04-08T08:34:17.393Z,10.37
2016-04-08T08:35:17.379Z,10.47
2016-04-08T08:36:17.351Z,10.51
2016-04-08T08:37:17.322Z,10.6
2016-04-08T08:38:17.309Z,10.58
2016-04-08T08:39:17.281Z,10.65
2016-04-08T08:40:17.251Z,10.68
2016-04-08T08:41:17.239Z,10.59
2016-04-08T08:42:17.242Z,10.58
2016-04-08T08:43:17.197Z,10.47
2016-04-08T08:44:17.169Z,10.46
2016-04-08T08:45:17.140Z,10.43
2016-04-08T08:46:17.128Z,10.47
2016-04-08T08:47:17.098Z,10.37
2016-04-08T08:48:17.367Z,10.4
2016-04-08T08:49:17.058Z,10.47
2016-04-08T08:50:17.028Z,10.46
2016-04-08T08:51:17.000Z,10.58
2016-04-08T08:52:16.986Z,10.73
2016-04-08T08:53:16.975Z,10.71
2016-04-08T08:54:16.946Z,10.99
2016-04-08T08:55:16.917Z,11.19
2016-04-08T08:56:16.905Z,11.31
2016-04-08T08:57:16.891Z,11.27
2016-04-08T08:58:16.847Z,11.31
2016-04-08T08:59:16.835Z,11.32
2016-04-08T09:00:16.821Z,11.17
2016-04-08T09:01:16.777Z,11.17
2016-04-08T09:02:16.763Z,11.27
2016-04-08T09:03:16.736Z,11.39
2016-04-08T09:04:16.707Z,11.31
2016-04-08T09:05:16.694Z,11.35
2016-04-08T09:06:16.666Z,11.31
2016-04-08T09:07:16.668Z,11.36
2016-04-08T09:08:16.624Z,11.2
2016-04-08T09:09:16.595Z,11.43
2016-04-08T09:10:16.599Z,11.24
2016-04-08T09:11:16.554Z,11.29
2016-04-08T09:12:16.540Z,11.27
2016-04-08T09:13:16.512Z,11.35
2016-04-08T09:14:16.500Z,11.36
2016-04-08T09:15:16.471Z,11.28
2016-04-08T09:16:16.443Z,11.32
2016-04-08T09:17:16.429Z,11.49
2016-04-08T09:18:16.416Z,11.39
2016-04-08T09:19:16.388Z,11.44
2016-04-08T09:20:16.375Z,11.44
2016-04-08T09:21:17.440Z,11.65
2016-04-08T09:22:16.317Z,11.53
2016-04-08T09:23:16.289Z,11.75
2016-04-08T09:24:16.277Z,11.86
2016-04-08T09:25:16.247Z,11.89
2016-04-08T09:26:16.236Z,11.96
2016-04-08T09:27:16.206Z,12.04
2016-04-08T09:28:16.193Z,12.12
2016-04-08T09:29:16.181Z,12.13
2016-04-08T09:30:16.152Z,12.09
2016-04-08T09:31:16.124Z,12.19
2016-04-08T09:32:16.094Z,12.19
2016-04-08T09:33:16.066Z,12.38
2016-04-08T09:34:16.054Z,12.45
2016-04-08T09:35:16.025Z,12.64
2016-04-08T09:36:16.028Z,12.84
2016-04-08T09:37:15.999Z,12.93
2016-04-08T09:38:15.970Z,13.02
2016-04-08T09:39:15.957Z,12.93
2016-04-08T09:40:15.929Z,13.04
2016-04-08T09:41:15.915Z,13.04
2016-04-08T09:42:15.887Z,13.04
2016-04-08T09:43:15.718Z,12.77
2016-04-08T09:44:15.845Z,12.75
2016-04-08T09:45:15.817Z,13.02
2016-04-08T09:46:15.820Z,12.84
2016-04-08T09:47:15.792Z,12.88
2016-04-08T09:48:15.762Z,12.84
2016-04-08T09:49:15.750Z,12.99
2016-04-08T09:50:15.722Z,13.17
2016-04-08T09:51:15.708Z,13.18
2016-04-08T09:52:15.680Z,13.33
2016-04-08T09:53:15.667Z,13.43
2016-04-08T09:54:15.653Z,13.56
2016-04-08T09:55:15.626Z,13.73
2016-04-08T09:56:15.613Z,13.61
2016-04-08T09:57:15.677Z,13.7
2016-04-08T09:58:15.559Z,13.76
2016-04-08T09:59:15.546Z,13.8
2016-04-08T10:00:15.409Z,14.01
2016-04-08T10:01:15.505Z,13.92
2016-04-08T10:02:15.492Z,14.02
2016-04-08T10:03:15.464Z,13.56
2016-04-08T10:04:15.435Z,13.61
2016-04-08T10:05:15.422Z,13.83
2016-04-08T10:06:15.409Z,13.96
2016-04-08T10:07:15.380Z,14.12
2016-04-08T10:08:15.383Z,14.34
2016-04-08T10:09:15.355Z,14.07
2016-04-08T10:10:15.341Z,14.16
2016-04-08T10:11:15.329Z,14.06
2016-04-08T10:12:15.284Z,13.91
2016-04-08T10:13:15.271Z,13.92
2016-04-08T10:14:15.258Z,14.04
2016-04-08T10:15:15.230Z,14.28
2016-04-08T10:16:15.202Z,14.43
2016-04-08T10:17:15.204Z,14.47
2016-04-08T10:18:15.160Z,14.8
2016-04-08T10:19:15.147Z,14.98
2016-04-08T10:20:14.977Z,15.27
2016-04-08T10:21:15.106Z,15.2
2016-04-08T10:22:15.093Z,15.27
2016-04-08T10:23:15.079Z,15.35
2016-04-08T10:24:15.052Z,15.38
2016-04-08T10:25:15.023Z,15.51
2016-04-08T10:26:15.026Z,15.54
2016-04-08T10:27:15.012Z,15.52
2016-04-08T10:28:14.968Z,15.54
2016-04-08T10:29:14.955Z,15.67
2016-04-08T10:30:14.943Z,15.49
2016-04-08T10:31:14.914Z,15.23
2016-04-08T10:32:14.900Z,15.27
2016-04-08T10:33:14.919Z,15.08
2016-04-08T10:34:14.875Z,15.05
2016-04-08T10:35:14.831Z,15.15
2016-04-08T10:36:14.817Z,14.86
2016-04-08T10:37:14.805Z,14.86
2016-04-08T10:38:14.792Z,14.67
2016-04-08T10:39:14.779Z,14.69
2016-04-08T10:40:14.750Z,14.37
2016-04-08T10:41:14.737Z,14.19
2016-04-08T10:42:14.708Z,14.25
2016-04-08T10:43:14.697Z,14.09
2016-04-08T10:44:14.683Z,13.92
2016-04-08T10:45:14.655Z,13.79
2016-04-08T10:46:14.641Z,13.79
2016-04-08T10:47:14.628Z,13.69
2016-04-08T10:48:14.600Z,13.54
2016-04-08T10:49:14.572Z,13.61
2016-04-08T10:50:14.558Z,13.4
2016-04-08T10:51:14.545Z,13.4
2016-04-08T10:52:14.533Z,13.52
2016-04-08T10:53:14.504Z,13.43
2016-04-08T10:54:14.476Z,13.54
2016-04-08T10:55:14.462Z,13.51
2016-04-08T10:56:14.465Z,13.58
2016-04-08T10:57:14.437Z,13.52
2016-04-08T10:58:14.408Z,13.2
2016-04-08T10:59:14.380Z,13.17
2016-04-08T11:00:14.460Z,13.15
2016-04-08T11:01:14.350Z,13.02
2016-04-08T11:02:14.323Z,13
2016-04-08T11:03:14.309Z,12.96
2016-04-08T11:04:14.280Z,13.03
2016-04-08T11:05:14.253Z,12.81
2016-04-08T11:06:14.239Z,12.66
2016-04-08T11:07:14.211Z,12.63
2016-04-08T11:08:14.197Z,12.67
2016-04-08T11:09:14.185Z,12.69
2016-04-08T11:10:14.141Z,12.66
2016-04-08T11:11:13.972Z,12.69
2016-04-08T11:12:14.114Z,12.74
2016-04-08T11:13:14.086Z,12.6
2016-04-08T11:14:14.088Z,12.64
2016-04-08T11:15:14.107Z,12.66
2016-04-08T11:16:14.032Z,12.59
2016-04-08T11:17:14.003Z,12.7
2016-04-08T11:18:13.991Z,12.67
2016-04-08T11:19:13.962Z,12.6
2016-04-08T11:20:13.933Z,12.51
2016-04-08T11:21:13.764Z,12.3
2016-04-08T11:22:13.891Z,12.24
2016-04-08T11:23:13.878Z,12.29
2016-04-08T11:24:13.866Z,12.39
2016-04-08T11:25:13.837Z,12.6
2016-04-08T11:26:13.823Z,12.66
2016-04-08T11:27:13.811Z,12.59
2016-04-08T11:28:13.767Z,12.52
2016-04-08T11:29:13.754Z,12.59
2016-04-08T11:30:13.882Z,12.46
2016-04-08T11:31:13.712Z,12.45
2016-04-08T11:32:13.700Z,12.59
2016-04-08T11:33:13.655Z,12.64
2016-04-08T11:34:13.643Z,12.63
2016-04-08T11:35:13.630Z,12.74
2016-04-08T11:36:13.601Z,12.7
2016-04-08T11:37:13.432Z,12.59
2016-04-08T11:38:13.559Z,12.7
2016-04-08T11:39:13.531Z,12.67
2016-04-08T11:40:13.519Z,12.74
2016-04-08T11:41:13.489Z,12.79
2016-04-08T11:42:13.477Z,12.79
2016-04-08T11:43:13.448Z,12.82
2016-04-08T11:44:17.654Z,12.97
2016-04-08T11:45:16.249Z,12.95
2016-04-08T11:46:17.143Z,12.87
2016-04-08T11:47:17.475Z,12.89
2016-04-08T11:48:13.352Z,12.99
2016-04-08T11:49:13.324Z,13.04
2016-04-08T11:50:13.466Z,13
2016-04-08T11:51:16.079Z,13.17
2016-04-08T11:52:16.941Z,13.29
2016-04-08T11:53:17.241Z,13.46
2016-04-08T11:54:13.212Z,13.65
2016-04-08T11:55:13.214Z,13.67
2016-04-08T11:56:13.187Z,13.76
2016-04-08T11:57:13.157Z,13.79
2016-04-08T11:58:13.129Z,13.79
2016-04-08T11:59:13.116Z,13.79
2016-04-08T12:00:13.228Z,13.8
2016-04-08T12:01:13.075Z,13.83
2016-04-08T12:02:13.046Z,13.77
2016-04-08T12:03:13.033Z,13.73
2016-04-08T12:04:13.036Z,14.01
2016-04-08T12:05:12.991Z,14.13
2016-04-08T12:06:12.979Z,14.28
2016-04-08T12:07:12.950Z,14.27
2016-04-08T12:08:12.953Z,14.42
2016-04-08T12:09:12.915Z,14.29
2016-04-08T12:10:12.901Z,14.53
2016-04-08T12:11:12.873Z,14.81
2016-04-08T12:12:12.860Z,14.87
2016-04-08T12:13:12.831Z,15.06
2016-04-08T12:14:12.819Z,15.11
2016-04-08T12:15:12.884Z,15.09
2016-04-08T12:16:12.777Z,15.01
2016-04-08T12:17:12.764Z,15.2
2016-04-08T12:18:12.736Z,15.19
2016-04-08T12:19:12.722Z,15.31
2016-04-08T12:20:12.694Z,15.28
2016-04-08T12:21:12.680Z,15.09
2016-04-08T12:22:12.668Z,15.02
2016-04-08T12:23:12.639Z,14.87
2016-04-08T12:24:12.610Z,14.72
2016-04-08T12:25:12.613Z,14.67
2016-04-08T12:26:12.585Z,14.46
2016-04-08T12:27:12.556Z,14.46
2016-04-08T12:28:12.527Z,14.25
2016-04-08T12:29:12.530Z,14.17
2016-04-08T12:30:12.501Z,14.19
2016-04-08T12:31:12.489Z,14.1
2016-04-08T12:32:12.460Z,14.19
2016-04-08T12:33:12.432Z,14.27
2016-04-08T12:34:12.418Z,14.28
2016-04-08T12:35:12.406Z,14.35
2016-04-08T12:36:12.378Z,14.32
2016-04-08T12:37:12.364Z,14.28
2016-04-08T12:38:12.336Z,14.35
2016-04-08T12:39:12.354Z,14.31
2016-04-08T12:40:12.325Z,14.42
2016-04-08T12:41:12.322Z,14.43
2016-04-08T12:42:12.350Z,14.54
2016-04-08T12:43:12.362Z,14.64
2016-04-08T12:44:12.390Z,14.8
2016-04-08T12:45:12.417Z,14.87
2016-04-08T12:46:12.404Z,14.84
2016-04-08T12:47:12.390Z,14.8
2016-04-08T12:48:12.407Z,14.88
2016-04-08T12:49:12.392Z,14.67
2016-04-08T12:50:12.379Z,14.68
2016-04-08T12:51:12.371Z,14.56
2016-04-08T12:52:12.348Z,14.83
2016-04-08T12:53:12.341Z,14.87
2016-04-08T12:54:12.333Z,14.86
2016-04-08T12:55:12.310Z,14.99
2016-04-08T12:56:12.299Z,14.86
2016-04-08T12:57:12.272Z,14.86
2016-04-08T12:58:12.261Z,14.87
2016-04-08T12:59:12.234Z,14.71
2016-04-08T13:00:12.223Z,14.68
2016-04-08T13:01:12.195Z,14.52
2016-04-08T13:02:12.199Z,14.44
2016-04-08T13:03:12.171Z,14.67
2016-04-08T13:04:12.145Z,14.71
2016-04-08T13:05:12.147Z,14.43
2016-04-08T13:06:12.103Z,14.52
2016-04-08T13:07:12.106Z,14.68
2016-04-08T13:08:12.076Z,14.52
2016-04-08T13:09:12.049Z,14.56
2016-04-08T13:10:12.051Z,14.44
2016-04-08T13:11:12.023Z,14.44